Time;durP1;ratioP1;P1;durP2;ratioP2;P2;SDS_P1;SDS_P2;PMS_P1;PMS_P2;Temp;Humidity;BMP_temperature;BMP_pressure;BME280_temperature;BME280_humidity;BME280_pressure;Samples;Min_cycle;Max_cycle;Signal;HPM_P1;HPM_P2
2022/02/02 00:04:25;;;;;;;40.70;8.02;;;;;;;;;;5105134;27;20043;-78
2022/02/02 00:09:27;;;;;;;39.17;6.90;;;;;;;;;;5103882;27;20411;-77
2022/02/02 00:12:14;;;;;;;37.88;6.47;;;;;;;;;;5090299;28;20051;-81
2022/02/02 00:17:52;;;;;;;33.13;6.70;;;;;;;;;;5044669;28;20048;-78
2022/02/02 00:20:30;;;;;;;41.45;5.15;;;;;;;;;;5083750;27;20044;-78
2022/02/02 00:23:00;;;;;;;34.50;5.10;;;;;;;;;;5089980;28;20051;-84
2022/02/02 00:25:35;;;;;;;27.38;5.22;;;;;;;;;;5073709;28;20159;-77
2022/02/02 00:28:03;;;;;;;36.78;4.90;;;;;;;;;;5128929;27;20047;-77
2022/02/02 00:30:34;;;;;;;33.25;5.32;;;;;;;;;;5100151;27;20074;-78
2022/02/02 00:33:17;;;;;;;31.95;5.15;;;;;;;;;;5106557;28;20603;-78
2022/02/02 00:35:54;;;;;;;27.67;5.55;;;;;;;;;;5089603;28;20172;-82
2022/02/02 00:38:20;;;;;;;40.80;4.78;;;;;;;;;;5090509;28;20046;-81
2022/02/02 00:40:46;;;;;;;26.15;5.97;;;;;;;;;;5096650;27;20054;-82
2022/02/02 00:43:12;;;;;;;35.80;5.03;;;;;;;;;;5098819;27;20100;-79
2022/02/02 00:45:44;;;;;;;28.88;4.90;;;;;;;;;;5103910;28;20035;-80
2022/02/02 00:48:11;;;;;;;29.63;4.63;;;;;;;;;;5091840;28;20044;-78
2022/02/02 00:50:38;;;;;;;31.25;5.90;;;;;;;;;;5109934;27;20050;-84
2022/02/02 00:53:04;;;;;;;25.13;4.97;;;;;;;;;;5092252;28;20055;-80
2022/02/02 00:55:33;;;;;;;37.90;6.60;;;;;;;;;;5074391;28;20058;-81
2022/02/02 00:57:59;;;;;;;33.70;5.60;;;;;;;;;;5090682;28;20394;-81
2022/02/02 01:00:25;;;;;;;35.20;5.10;;;;;;;;;;5070985;28;20035;-81
2022/02/02 01:02:51;;;;;;;33.03;5.30;;;;;;;;;;5110500;28;20046;-81
2022/02/02 01:05:17;;;;;;;32.30;5.50;;;;;;;;;;5091366;28;20127;-82
2022/02/02 01:10:54;;;;;;;25.52;5.28;;;;;;;;;;5104399;28;20039;-81
2022/02/02 01:18:36;;;;;;;25.75;4.03;;;;;;;;;;5105200;28;20401;-82
2022/02/02 01:21:05;;;;;;;24.20;4.97;;;;;;;;;;5073176;28;20097;-81
2022/02/02 01:29:03;;;;;;;16.67;2.63;;;;;;;;;;5107358;28;20044;-80
2022/02/02 01:31:29;;;;;;;17.77;3.03;;;;;;;;;;5080339;28;20072;-81
2022/02/02 01:33:55;;;;;;;23.75;2.85;;;;;;;;;;5098411;28;20122;-80
2022/02/02 01:36:22;;;;;;;22.05;3.47;;;;;;;;;;5087548;28;20044;-80
2022/02/02 01:38:50;;;;;;;21.80;2.40;;;;;;;;;;5104065;27;20035;-80
2022/02/02 01:41:30;;;;;;;25.77;3.60;;;;;;;;;;5106467;27;20141;-81
2022/02/02 01:44:11;;;;;;;16.85;3.88;;;;;;;;;;5100495;28;20079;-80
2022/02/02 01:46:38;;;;;;;16.65;3.28;;;;;;;;;;5092005;28;20122;-81
2022/02/02 01:50:03;;;;;;;23.67;3.55;;;;;;;;;;5095756;28;20039;-84
2022/02/02 01:52:23;;;;;;;17.27;3.58;;;;;;;;;;5107942;28;20063;-81
2022/02/02 01:54:56;;;;;;;;;;;;;;;;;;5095865;27;20048;-81
2022/02/02 01:59:59;;;;;;;21.20;3.15;;;;;;;;;;5113213;27;20395;-81
2022/02/02 02:02:25;;;;;;;25.02;3.60;;;;;;;;;;5094183;28;20040;-85
2022/02/02 02:04:51;;;;;;;22.80;4.30;;;;;;;;;;5095224;28;20082;-81
2022/02/02 02:07:18;;;;;;;26.20;3.90;;;;;;;;;;5093315;28;20051;-83
2022/02/02 02:09:44;;;;;;;26.17;3.90;;;;;;;;;;5107240;28;20047;-81
2022/02/02 02:12:11;;;;;;;31.08;4.53;;;;;;;;;;5096414;28;20043;-83
2022/02/02 02:14:47;;;;;;;44.00;5.55;;;;;;;;;;5110942;27;20142;-81
2022/02/02 02:17:13;;;;;;;34.40;5.40;;;;;;;;;;5094927;28;20040;-81
2022/02/02 02:19:43;;;;;;;26.83;5.22;;;;;;;;;;5095152;27;20036;-82
2022/02/02 02:22:12;;;;;;;36.80;5.88;;;;;;;;;;5113415;27;20510;-81
2022/02/02 02:24:40;;;;;;;41.90;6.35;;;;;;;;;;5109507;27;20050;-82
2022/02/02 02:27:07;;;;;;;39.28;6.30;;;;;;;;;;5091234;28;20092;-80
2022/02/02 02:32:25;;;;;;;40.95;6.55;;;;;;;;;;5103935;28;20048;-80
2022/02/02 02:35:12;;;;;;;38.72;6.03;;;;;;;;;;5131621;27;20141;-80
2022/02/02 02:56:47;;;;;;;46.80;6.32;;;;;;;;;;5107299;27;20036;-82
2022/02/02 02:59:17;;;;;;;32.15;5.32;;;;;;;;;;5090461;28;20086;-81
2022/02/02 03:31:53;;;;;;;33.20;4.60;;;;;;;;;;5111436;27;20054;-80
2022/02/02 03:34:47;;;;;;;40.15;5.93;;;;;;;;;;5074928;28;20075;-80
2022/02/02 03:58:39;;;;;;;33.15;4.75;;;;;;;;;;5103244;28;20047;-81
2022/02/02 04:06:09;;;;;;;28.60;5.38;;;;;;;;;;5090347;28;20048;-81
2022/02/02 04:08:39;;;;;;;28.63;4.82;;;;;;;;;;5083265;28;20040;-82
2022/02/02 04:11:16;;;;;;;31.77;4.18;;;;;;;;;;5099055;28;20440;-79
2022/02/02 04:37:52;;;;;;;33.50;5.68;;;;;;;;;;5097944;28;20059;-80
2022/02/02 05:12:18;;;;;;;39.08;6.80;;;;;;;;;;5116250;27;20048;-80
2022/02/02 05:17:28;;;;;;;43.45;6.43;;;;;;;;;;5099896;28;20395;-83
2022/02/02 05:51:58;;;;;;;36.20;5.60;;;;;;;;;;5096589;28;20048;-83
2022/02/02 05:54:24;;;;;;;28.90;5.70;;;;;;;;;;5092808;28;20109;-82
2022/02/02 05:56:52;;;;;;;37.55;6.30;;;;;;;;;;5099657;28;20063;-82
2022/02/02 05:59:19;;;;;;;39.25;6.28;;;;;;;;;;5085224;28;20055;-83
2022/02/02 06:01:50;;;;;;;36.00;6.05;;;;;;;;;;5079218;28;20052;-80
2022/02/02 06:04:21;;;;;;;36.60;6.88;;;;;;;;;;5092884;28;20490;-80
2022/02/02 06:06:47;;;;;;;31.50;5.32;;;;;;;;;;5099473;28;20044;-81
2022/02/02 06:09:14;;;;;;;37.95;5.57;;;;;;;;;;5112660;28;20480;-81
2022/02/02 06:11:42;;;;;;;34.50;5.88;;;;;;;;;;5095289;28;20120;-81
2022/02/02 06:14:08;;;;;;;38.13;6.15;;;;;;;;;;5101258;28;20546;-77
2022/02/02 06:16:35;;;;;;;33.72;5.97;;;;;;;;;;5086632;28;20047;-82
2022/02/02 06:19:02;;;;;;;36.35;4.82;;;;;;;;;;5111992;27;20047;-80
2022/02/02 06:21:28;;;;;;;43.90;6.03;;;;;;;;;;5091713;28;20036;-80
2022/02/02 06:23:59;;;;;;;44.95;6.07;;;;;;;;;;5088897;27;20351;-80
2022/02/02 06:26:26;;;;;;;37.42;5.40;;;;;;;;;;5098783;27;20050;-80
2022/02/02 06:28:56;;;;;;;31.15;4.80;;;;;;;;;;5078842;28;20040;-80
2022/02/02 06:31:26;;;;;;;36.53;6.30;;;;;;;;;;5083020;28;20340;-84
2022/02/02 06:33:58;;;;;;;44.90;6.15;;;;;;;;;;5110593;27;20048;-81
2022/02/02 06:36:27;;;;;;;28.58;5.28;;;;;;;;;;5086308;28;20047;-80
2022/02/02 06:38:53;;;;;;;31.10;5.97;;;;;;;;;;5083287;28;20043;-81
2022/02/02 06:41:20;;;;;;;35.35;5.88;;;;;;;;;;5076001;28;20089;-81
2022/02/02 06:43:46;;;;;;;34.28;6.13;;;;;;;;;;5127620;27;20040;-82
2022/02/02 06:46:13;;;;;;;33.95;6.03;;;;;;;;;;5107528;27;20562;-81
2022/02/02 06:48:39;;;;;;;36.95;6.55;;;;;;;;;;5092352;28;20085;-81
2022/02/02 06:51:20;;;;;;;36.35;6.50;;;;;;;;;;5114310;27;20044;-82
2022/02/02 06:54:24;;;;;;;35.50;5.88;;;;;;;;;;5112292;27;20060;-86
2022/02/02 06:57:11;;;;;;;34.95;5.57;;;;;;;;;;5073634;28;20151;-84
2022/02/02 07:02:28;;;;;;;40.90;7.00;;;;;;;;;;5111885;28;20131;-83
2022/02/02 07:07:57;;;;;;;37.78;5.88;;;;;;;;;;5127130;27;20097;-83
2022/02/02 07:10:38;;;;;;;45.30;7.30;;;;;;;;;;5081640;28;20374;-83
2022/02/02 07:16:00;;;;;;;46.97;5.80;;;;;;;;;;5111325;27;20048;-86
2022/02/02 07:31:19;;;;;;;37.78;5.60;;;;;;;;;;5097414;28;20174;-83
2022/02/02 07:33:49;;;;;;;46.35;6.82;;;;;;;;;;5074916;28;20491;-82
2022/02/02 07:36:27;;;;;;;37.65;5.20;;;;;;;;;;5095135;28;20124;-81
2022/02/02 07:38:59;;;;;;;41.75;6.07;;;;;;;;;;5093708;28;20044;-82
2022/02/02 07:41:30;;;;;;;44.50;6.90;;;;;;;;;;5107008;28;20126;-82
2022/02/02 07:44:04;;;;;;;44.92;6.32;;;;;;;;;;5093377;28;20348;-84
2022/02/02 07:46:31;;;;;;;39.15;7.50;;;;;;;;;;5111515;28;20047;-83
2022/02/02 07:48:58;;;;;;;38.58;5.72;;;;;;;;;;5062691;28;20058;-83
2022/02/02 07:51:26;;;;;;;47.13;6.25;;;;;;;;;;5070055;28;20036;-83
2022/02/02 07:53:53;;;;;;;43.00;5.93;;;;;;;;;;5085728;28;20094;-82
2022/02/02 07:56:26;;;;;;;37.97;5.45;;;;;;;;;;5075017;28;20484;-83
2022/02/02 07:59:10;;;;;;;41.00;5.82;;;;;;;;;;5095242;28;20047;-84
2022/02/02 08:01:36;;;;;;;;;;;;;;;;;;5087223;28;20043;-83
2022/02/02 08:04:02;;;;;;;38.83;5.88;;;;;;;;;;5095967;28;19920;-82
2022/02/02 08:06:28;;;;;;;40.22;7.32;;;;;;;;;;5122448;28;20036;-83
2022/02/02 08:08:54;;;;;;;41.03;7.05;;;;;;;;;;5123949;28;20051;-81
2022/02/02 08:11:29;;;;;;;34.92;5.18;;;;;;;;;;5076295;28;20053;-83
2022/02/02 08:13:58;;;;;;;53.80;7.93;;;;;;;;;;5074722;28;20042;-82
2022/02/02 08:16:25;;;;;;;53.65;6.07;;;;;;;;;;5077479;28;20082;-82
2022/02/02 08:18:53;;;;;;;37.47;5.88;;;;;;;;;;5089936;28;20105;-82
2022/02/02 08:21:19;;;;;;;38.38;6.32;;;;;;;;;;5072986;28;20043;-82
2022/02/02 08:23:46;;;;;;;36.40;6.05;;;;;;;;;;5074233;28;20047;-82
2022/02/02 08:26:16;;;;;;;42.10;5.78;;;;;;;;;;5092017;28;20070;-81
2022/02/02 08:28:46;;;;;;;38.63;5.55;;;;;;;;;;5090754;28;20482;-83
2022/02/02 08:31:13;;;;;;;35.65;5.35;;;;;;;;;;5109960;28;20093;-82
2022/02/02 08:33:44;;;;;;;41.53;5.32;;;;;;;;;;5076985;28;20431;-82
2022/02/02 08:36:14;;;;;;;30.40;5.38;;;;;;;;;;5072752;28;20040;-82
2022/02/02 08:41:15;;;;;;;42.60;6.50;;;;;;;;;;5124718;27;20048;-83
2022/02/02 08:44:21;;;;;;;39.97;5.57;;;;;;;;;;5094807;28;20150;-84
2022/02/02 08:46:36;;;;;;;41.88;6.82;;;;;;;;;;5100287;28;20051;-85
2022/02/02 08:49:06;;;;;;;42.72;5.95;;;;;;;;;;5086370;28;20051;-83
2022/02/02 08:51:38;;;;;;;36.67;6.25;;;;;;;;;;5101256;28;20085;-84
2022/02/02 08:54:28;;;;;;;39.13;5.72;;;;;;;;;;5110253;28;20494;-84
2022/02/02 08:59:45;;;;;;;46.55;6.88;;;;;;;;;;5092093;28;20044;-87
2022/02/02 09:02:16;;;;;;;40.65;6.43;;;;;;;;;;5095039;28;20048;-82
2022/02/02 09:07:27;;;;;;;38.88;6.97;;;;;;;;;;5106629;28;20118;-80
2022/02/02 09:10:02;;;;;;;39.10;6.40;;;;;;;;;;5074459;28;20505;-81
2022/02/02 09:23:56;;;;;;;37.65;5.38;;;;;;;;;;5090930;28;20044;-79
2022/02/02 09:32:12;;;;;;;28.88;4.65;;;;;;;;;;5095116;28;20406;-82
2022/02/02 09:34:38;;;;;;;25.58;4.35;;;;;;;;;;5073759;28;20072;-83
2022/02/02 09:37:04;;;;;;;28.75;4.55;;;;;;;;;;5100244;28;20122;-81
2022/02/02 09:39:37;;;;;;;22.92;4.25;;;;;;;;;;5091827;28;20051;-82
2022/02/02 09:42:09;;;;;;;22.23;5.30;;;;;;;;;;5072525;28;20143;-82
2022/02/02 09:44:39;;;;;;;27.55;4.38;;;;;;;;;;5057880;28;20419;-82
2022/02/02 09:47:22;;;;;;;23.50;3.72;;;;;;;;;;5073021;28;20044;-82
2022/02/02 09:52:20;;;;;;;28.27;4.95;;;;;;;;;;5124956;27;20044;-79
2022/02/02 09:55:14;;;;;;;25.15;4.18;;;;;;;;;;5104287;28;20056;-78
2022/02/02 10:03:36;;;;;;;;;;;;;;;;;;5099481;28;20066;-78
2022/02/02 10:05:47;;;;;;;26.95;5.13;;;;;;;;;;5082947;28;19919;-78
2022/02/02 10:11:23;;;;;;;27.10;4.07;;;;;;;;;;5108872;28;20048;-77
2022/02/02 10:14:15;;;;;;;24.55;4.03;;;;;;;;;;5111859;27;20149;-85
2022/02/02 10:16:45;;;;;;;21.58;4.30;;;;;;;;;;5084396;28;20085;-82
2022/02/02 10:19:13;;;;;;;24.00;4.68;;;;;;;;;;5069844;28;20051;-81
2022/02/02 10:21:39;;;;;;;28.48;4.47;;;;;;;;;;5068870;28;20051;-83
2022/02/02 10:24:05;;;;;;;26.17;3.60;;;;;;;;;;5080927;28;20174;-82
2022/02/02 10:26:31;;;;;;;30.13;5.28;;;;;;;;;;5093490;28;20062;-83
2022/02/02 10:29:07;;;;;;;27.83;5.22;;;;;;;;;;5110001;27;20059;-76
2022/02/02 10:31:40;;;;;;;24.83;4.30;;;;;;;;;;5104577;28;20058;-87
2022/02/02 10:34:13;;;;;;;34.23;4.63;;;;;;;;;;5100913;28;20204;-79
2022/02/02 10:36:39;;;;;;;21.23;4.43;;;;;;;;;;5101150;27;20052;-84
2022/02/02 10:39:15;;;;;;;33.58;4.63;;;;;;;;;;5109726;28;20051;-86
2022/02/02 10:42:00;;;;;;;31.15;4.03;;;;;;;;;;5101221;27;20104;-84
2022/02/02 10:44:40;;;;;;;23.42;4.32;;;;;;;;;;5074964;28;20044;-86
2022/02/02 10:47:27;;;;;;;22.52;3.33;;;;;;;;;;5104029;28;20509;-85
2022/02/02 10:50:02;;;;;;;23.05;4.43;;;;;;;;;;5135217;27;20047;-87
2022/02/02 11:08:38;;;;;;;22.77;3.42;;;;;;;;;;5108015;27;20048;-79
2022/02/02 11:11:05;;;;;;;24.17;4.05;;;;;;;;;;5077013;28;20535;-85
2022/02/02 11:13:31;;;;;;;25.33;3.65;;;;;;;;;;5111162;27;20052;-87
2022/02/02 11:15:58;;;;;;;25.67;4.30;;;;;;;;;;5115879;27;20127;-79
2022/02/02 11:18:29;;;;;;;19.05;3.40;;;;;;;;;;5088256;28;20055;-82
2022/02/02 11:20:55;;;;;;;21.77;2.80;;;;;;;;;;5096431;28;20115;-86
2022/02/02 11:23:25;;;;;;;23.75;4.32;;;;;;;;;;5077349;28;20052;-85
2022/02/02 11:25:59;;;;;;;28.17;3.50;;;;;;;;;;5134544;27;20104;-84
2022/02/02 11:28:33;;;;;;;21.70;3.88;;;;;;;;;;5097089;28;20144;-86
2022/02/02 11:31:05;;;;;;;20.27;3.63;;;;;;;;;;5133207;27;20108;-88
2022/02/02 11:33:41;;;;;;;19.50;3.00;;;;;;;;;;5094463;28;20065;-85
2022/02/02 11:36:16;;;;;;;17.48;3.42;;;;;;;;;;5121434;27;20047;-87
2022/02/02 11:38:44;;;;;;;19.70;3.20;;;;;;;;;;5082672;28;20138;-88
2022/02/02 11:44:06;;;;;;;22.25;3.60;;;;;;;;;;5093525;28;20355;-81
2022/02/02 11:46:38;;;;;;;19.70;3.75;;;;;;;;;;5108335;28;20097;-86
2022/02/02 11:49:09;;;;;;;19.75;3.33;;;;;;;;;;5091322;28;20072;-87
2022/02/02 11:51:39;;;;;;;25.30;3.25;;;;;;;;;;5091452;28;20093;-84
2022/02/02 11:54:07;;;;;;;25.15;3.35;;;;;;;;;;5121850;27;20059;-88
2022/02/02 11:56:52;;;;;;;20.13;3.30;;;;;;;;;;5110799;28;20131;-88
2022/02/02 12:02:19;;;;;;;15.55;2.60;;;;;;;;;;5080710;28;20055;-82
2022/02/02 12:27:59;;;;;;;15.38;2.85;;;;;;;;;;5101578;28;20055;-87
2022/02/02 12:44:36;;;;;;;22.00;3.05;;;;;;;;;;5136080;27;20190;-84
2022/02/02 12:49:38;;;;;;;21.55;2.95;;;;;;;;;;5110460;28;20426;-87
2022/02/02 12:57:38;;;;;;;14.20;2.83;;;;;;;;;;5105770;28;20135;-84
2022/02/02 13:00:10;;;;;;;15.55;3.33;;;;;;;;;;5093959;28;20370;-88
2022/02/02 13:02:40;;;;;;;15.50;2.58;;;;;;;;;;5073203;28;20238;-82
2022/02/02 13:05:07;;;;;;;16.50;3.28;;;;;;;;;;5084023;28;20039;-82
2022/02/02 13:07:33;;;;;;;13.13;2.30;;;;;;;;;;5088458;28;20466;-79
2022/02/02 13:10:04;;;;;;;18.05;2.55;;;;;;;;;;5068147;28;20055;-83
2022/02/02 13:13:18;;;;;;;12.90;2.40;;;;;;;;;;5105319;28;20048;-75
2022/02/02 13:20:52;;;;;;;18.15;2.67;;;;;;;;;;5106915;28;20120;-76
2022/02/02 13:23:31;;;;;;;14.60;2.45;;;;;;;;;;5106110;28;20048;-77
2022/02/02 13:26:02;;;;;;;20.05;2.70;;;;;;;;;;5079579;28;20067;-76
2022/02/02 13:29:15;;;;;;;16.08;2.65;;;;;;;;;;5092664;28;20044;-76
2022/02/02 13:31:40;;;;;;;15.77;3.05;;;;;;;;;;5099674;28;20386;-80
2022/02/02 13:34:10;;;;;;;13.43;2.35;;;;;;;;;;5093297;28;20154;-80
2022/02/02 13:42:18;;;;;;;21.25;3.50;;;;;;;;;;5091498;28;20060;-78
2022/02/02 13:42:41;;;;;;;19.17;2.72;;;;;;;;;;5113537;27;20053;-77
2022/02/02 13:51:02;;;;;;;16.75;2.58;;;;;;;;;;5109852;28;20146;-77
2022/02/02 13:53:50;;;;;;;14.93;2.22;;;;;;;;;;5109600;28;20067;-81
2022/02/02 13:59:06;;;;;;;14.93;3.10;;;;;;;;;;5105323;28;20275;-78
2022/02/02 14:01:50;;;;;;;14.93;2.38;;;;;;;;;;5093395;28;20055;-81
2022/02/02 14:07:12;;;;;;;15.40;2.63;;;;;;;;;;5110291;28;20407;-78
2022/02/02 14:31:10;;;;;;;19.83;2.45;;;;;;;;;;5106089;27;20052;-82
2022/02/02 14:33:36;;;;;;;26.67;4.03;;;;;;;;;;5092322;28;20052;-82
2022/02/02 14:36:05;;;;;;;16.98;2.95;;;;;;;;;;5102701;28;20040;-79
2022/02/02 14:44:02;;;;;;;18.75;2.80;;;;;;;;;;5090480;28;20430;-85
2022/02/02 14:46:43;;;;;;;20.95;3.40;;;;;;;;;;5090500;28;20122;-84
2022/02/02 14:49:16;;;;;;;22.05;2.80;;;;;;;;;;5092218;28;20462;-84
2022/02/02 14:54:40;;;;;;;21.48;4.30;;;;;;;;;;5091604;28;20422;-76
2022/02/02 15:27:36;;;;;;;13.75;2.85;;;;;;;;;;5111195;27;20047;-75
2022/02/02 15:30:25;;;;;;;16.45;2.25;;;;;;;;;;5130729;27;20046;-75
2022/02/02 15:32:56;;;;;;;24.70;3.72;;;;;;;;;;5101572;28;20055;-75
2022/02/02 15:35:24;;;;;;;11.65;2.50;;;;;;;;;;5121105;27;20043;-76
2022/02/02 15:38:14;;;;;;;25.00;4.07;;;;;;;;;;5145519;27;20063;-75
2022/02/02 15:40:46;;;;;;;18.92;2.70;;;;;;;;;;5104690;27;20055;-75
2022/02/02 15:43:31;;;;;;;20.10;2.90;;;;;;;;;;5106893;27;20117;-75
2022/02/02 15:58:06;;;;;;;16.20;2.22;;;;;;;;;;5138779;27;20492;-76
2022/02/02 16:02:16;;;;;;;18.38;3.30;;;;;;;;;;5097974;27;20368;-75
2022/02/02 16:04:43;;;;;;;13.23;2.35;;;;;;;;;;5094946;27;20058;-79
2022/02/02 16:07:12;;;;;;;12.15;2.65;;;;;;;;;;5095558;27;20035;-75
2022/02/02 16:09:49;;;;;;;18.33;3.08;;;;;;;;;;5114772;27;20422;-75
2022/02/02 16:12:31;;;;;;;15.65;2.85;;;;;;;;;;5105268;27;20126;-76
2022/02/02 16:31:32;;;;;;;15.85;2.65;;;;;;;;;;5139221;27;20058;-78
2022/02/02 16:36:33;;;;;;;15.73;3.80;;;;;;;;;;5146917;27;20051;-80
2022/02/02 16:39:16;;;;;;;18.98;2.90;;;;;;;;;;5088497;27;20052;-76
2022/02/02 16:44:27;;;;;;;15.77;3.00;;;;;;;;;;5095643;27;20039;-75
2022/02/02 16:46:53;;;;;;;18.33;3.72;;;;;;;;;;5110041;27;20126;-73
2022/02/02 16:49:19;;;;;;;18.15;3.00;;;;;;;;;;5095376;28;20055;-75
2022/02/02 16:51:46;;;;;;;32.10;3.55;;;;;;;;;;5113663;27;20124;-75
2022/02/02 16:54:38;;;;;;;24.65;4.25;;;;;;;;;;5099930;27;20055;-78
2022/02/02 17:32:28;;;;;;;37.72;5.32;;;;;;;;;;5107595;28;20132;-74
2022/02/02 17:40:01;;;;;;;28.50;5.97;;;;;;;;;;5112583;28;20445;-75
2022/02/02 18:20:12;;;;;;;26.65;6.13;;;;;;;;;;5142472;27;20055;-75
2022/02/02 18:22:46;;;;;;;38.83;7.22;;;;;;;;;;5093165;27;20113;-76
2022/02/02 18:25:22;;;;;;;33.08;7.35;;;;;;;;;;5100461;28;20039;-77
2022/02/02 18:28:01;;;;;;;32.03;6.88;;;;;;;;;;5084429;28;20094;-76
2022/02/02 18:31:09;;;;;;;38.45;7.75;;;;;;;;;;5138755;27;20110;-74
2022/02/02 18:35:58;;;;;;;39.38;7.72;;;;;;;;;;5109842;28;20048;-74
2022/02/02 18:54:42;;;;;;;40.80;8.05;;;;;;;;;;5120590;27;20053;-77
2022/02/02 19:02:48;;;;;;;35.70;6.57;;;;;;;;;;5143517;27;20053;-77
2022/02/02 19:40:30;;;;;;;41.15;8.07;;;;;;;;;;5080914;28;20051;-76
2022/02/02 20:07:27;;;;;;;36.95;8.05;;;;;;;;;;5131523;27;20498;-74
2022/02/02 20:12:31;;;;;;;35.08;7.53;;;;;;;;;;5107589;27;20088;-74
2022/02/02 20:14:58;;;;;;;30.92;7.88;;;;;;;;;;5128870;27;20039;-74
2022/02/02 20:17:26;;;;;;;38.33;7.25;;;;;;;;;;5106342;28;20040;-75
2022/02/02 20:19:56;;;;;;;31.75;7.40;;;;;;;;;;5108538;27;20054;-75
2022/02/02 20:22:24;;;;;;;31.25;7.55;;;;;;;;;;5107556;28;20458;-73
2022/02/02 20:24:55;;;;;;;34.00;7.78;;;;;;;;;;5113514;27;20504;-74
2022/02/02 20:27:21;;;;;;;36.38;7.28;;;;;;;;;;5132490;27;20487;-73
2022/02/02 20:29:47;;;;;;;35.53;6.85;;;;;;;;;;5104141;27;20196;-75
2022/02/02 20:32:13;;;;;;;30.98;7.53;;;;;;;;;;5117068;27;20047;-72
2022/02/02 20:34:39;;;;;;;33.88;7.13;;;;;;;;;;5089725;28;20036;-74
2022/02/02 20:37:06;;;;;;;38.83;8.60;;;;;;;;;;5095086;28;20059;-74
2022/02/02 20:42:06;;;;;;;32.83;7.85;;;;;;;;;;5122828;27;20049;-77
2022/02/02 21:11:11;;;;;;;58.75;12.68;;;;;;;;;;5101378;27;20095;-75
2022/02/02 21:13:44;;;;;;;61.13;13.95;;;;;;;;;;5082477;28;20493;-75
2022/02/02 21:16:13;;;;;;;65.75;15.25;;;;;;;;;;5088701;27;20084;-74
2022/02/02 21:18:41;;;;;;;69.22;17.92;;;;;;;;;;5091603;28;20122;-75
2022/02/02 21:21:34;;;;;;;82.13;19.60;;;;;;;;;;5107192;27;20044;-74
2022/02/02 21:29:11;;;;;;;86.60;20.95;;;;;;;;;;5103391;28;20051;-75
2022/02/02 21:31:37;;;;;;;98.50;23.63;;;;;;;;;;5110473;27;20047;-77
2022/02/02 21:34:03;;;;;;;101.30;24.02;;;;;;;;;;5095232;28;20082;-77
2022/02/02 21:36:29;;;;;;;111.10;26.67;;;;;;;;;;5080710;28;20066;-76
2022/02/02 21:39:44;;;;;;;114.18;25.58;;;;;;;;;;5079463;28;20185;-76
2022/02/02 21:41:46;;;;;;;114.32;26.20;;;;;;;;;;5122131;27;20052;-76
2022/02/02 21:44:13;;;;;;;120.15;28.83;;;;;;;;;;5087272;28;20116;-74
2022/02/02 21:46:41;;;;;;;130.75;30.88;;;;;;;;;;5096114;28;20059;-74
2022/02/02 21:49:14;;;;;;;129.23;30.77;;;;;;;;;;5083719;28;20044;-74
2022/02/02 21:51:51;;;;;;;129.15;31.13;;;;;;;;;;5099224;28;20063;-75
2022/02/02 21:54:17;;;;;;;123.35;32.75;;;;;;;;;;5104322;27;20059;-72
2022/02/02 21:56:43;;;;;;;127.30;32.25;;;;;;;;;;5114112;27;20063;-78
2022/02/02 21:59:09;;;;;;;131.27;33.83;;;;;;;;;;5113049;27;20053;-78
2022/02/02 22:01:35;;;;;;;120.75;31.70;;;;;;;;;;5128673;27;20035;-78
2022/02/02 22:04:01;;;;;;;106.55;29.58;;;;;;;;;;5094359;28;20068;-79
2022/02/02 22:06:28;;;;;;;133.73;31.95;;;;;;;;;;5094597;27;20142;-77
2022/02/02 22:08:54;;;;;;;127.28;36.70;;;;;;;;;;5095069;27;20627;-80
2022/02/02 22:11:20;;;;;;;128.48;30.67;;;;;;;;;;5129691;27;20100;-76
2022/02/02 22:13:56;;;;;;;122.03;31.58;;;;;;;;;;5111617;27;20051;-77
2022/02/02 22:16:23;;;;;;;136.88;32.05;;;;;;;;;;5079576;27;20121;-76
2022/02/02 22:18:50;;;;;;;138.95;31.88;;;;;;;;;;5138087;27;20436;-77
2022/02/02 22:21:17;;;;;;;129.20;31.60;;;;;;;;;;5090150;28;20397;-79
2022/02/02 22:23:43;;;;;;;130.55;29.58;;;;;;;;;;5102443;27;20122;-78
2022/02/02 22:26:10;;;;;;;132.35;31.50;;;;;;;;;;5112030;27;20485;-76
2022/02/02 22:28:36;;;;;;;111.90;27.75;;;;;;;;;;5110205;27;20474;-79
2022/02/02 22:31:02;;;;;;;125.50;28.63;;;;;;;;;;5127907;27;20163;-80
2022/02/02 22:33:28;;;;;;;135.95;29.63;;;;;;;;;;5126060;27;20077;-77
2022/02/02 22:35:54;;;;;;;113.35;27.25;;;;;;;;;;5122185;27;20486;-77
2022/02/02 22:38:20;;;;;;;126.35;29.40;;;;;;;;;;5129247;27;20039;-78
2022/02/02 22:40:47;;;;;;;105.43;26.30;;;;;;;;;;5094007;27;20035;-77
2022/02/02 22:43:14;;;;;;;97.47;25.98;;;;;;;;;;5112045;27;20435;-78
2022/02/02 22:45:41;;;;;;;94.00;23.17;;;;;;;;;;5111427;27;20035;-78
2022/02/02 22:48:08;;;;;;;87.05;22.48;;;;;;;;;;5078591;27;20112;-79
2022/02/02 22:50:34;;;;;;;81.75;22.55;;;;;;;;;;5123075;27;20087;-77
2022/02/02 22:53:00;;;;;;;79.20;22.38;;;;;;;;;;5093318;27;20059;-81
2022/02/02 22:55:27;;;;;;;76.55;21.23;;;;;;;;;;5094976;27;20086;-81
2022/02/02 22:57:53;;;;;;;76.28;20.38;;;;;;;;;;5121204;27;20051;-85
2022/02/02 23:00:23;;;;;;;72.05;19.88;;;;;;;;;;5117650;27;20043;-79
2022/02/02 23:05:22;;;;;;;68.95;19.90;;;;;;;;;;5110879;27;20066;-81
2022/02/02 23:07:48;;;;;;;71.78;20.48;;;;;;;;;;5114812;27;20039;-81
2022/02/02 23:10:14;;;;;;;64.10;19.65;;;;;;;;;;5094434;27;20420;-80
2022/02/02 23:12:40;;;;;;;67.03;20.55;;;;;;;;;;5112508;27;20039;-79
2022/02/02 23:15:11;;;;;;;68.20;20.30;;;;;;;;;;5112444;27;20451;-79
2022/02/02 23:17:37;;;;;;;98.30;23.60;;;;;;;;;;5108231;27;20047;-80
2022/02/02 23:20:04;;;;;;;92.55;24.55;;;;;;;;;;5123340;27;20429;-79
2022/02/02 23:22:31;;;;;;;85.72;22.42;;;;;;;;;;5114404;27;20039;-79
2022/02/02 23:25:02;;;;;;;87.53;22.70;;;;;;;;;;5108785;27;20498;-78
2022/02/02 23:27:30;;;;;;;84.28;22.77;;;;;;;;;;5112519;27;20043;-78
2022/02/02 23:29:56;;;;;;;91.85;23.77;;;;;;;;;;5114163;27;20107;-81
2022/02/02 23:32:25;;;;;;;101.75;24.67;;;;;;;;;;5115518;27;20908;-83
2022/02/02 23:34:51;;;;;;;96.53;27.08;;;;;;;;;;5093721;27;20048;-81
2022/02/02 23:37:17;;;;;;;121.63;27.05;;;;;;;;;;5108624;27;20046;-82
2022/02/02 23:39:43;;;;;;;121.15;27.63;;;;;;;;;;5100707;27;20055;-82
2022/02/02 23:42:27;;;;;;;128.00;30.52;;;;;;;;;;5111942;27;20084;-86
2022/02/02 23:44:54;;;;;;;126.90;29.52;;;;;;;;;;5112224;27;20463;-81
2022/02/02 23:47:25;;;;;;;134.18;31.00;;;;;;;;;;5106434;27;20119;-79
2022/02/02 23:49:56;;;;;;;151.55;33.22;;;;;;;;;;5115081;27;20071;-83
2022/02/02 23:52:23;;;;;;;162.98;34.28;;;;;;;;;;5095883;27;20126;-89
2022/02/02 23:54:53;;;;;;;176.35;34.88;;;;;;;;;;5094729;27;20052;-80
2022/02/02 23:57:45;;;;;;;164.38;35.20;;;;;;;;;;5111727;27;20096;-82
